Time;durP1;ratioP1;P1;durP2;ratioP2;P2;SDS_P1;SDS_P2;PMS_P1;PMS_P2;Temp;Humidity;BMP_temperature;BMP_pressure;BME280_temperature;BME280_humidity;BME280_pressure;Samples;Min_cycle;Max_cycle;Signal;HPM_P1;HPM_P2
2023/01/23 00:00:45;;;;;;;10.93;5.40;;;4.00;99.90;;;;;;5060408;28;20048;-77
2023/01/23 00:03:11;;;;;;;13.43;5.75;;;4.00;99.90;;;;;;5068386;28;20066;-77
2023/01/23 00:05:36;;;;;;;13.65;5.88;;;3.90;99.90;;;;;;5044541;28;20044;-78
2023/01/23 00:08:02;;;;;;;13.68;5.50;;;3.90;99.90;;;;;;5077405;28;20053;-78
2023/01/23 00:10:28;;;;;;;15.18;6.35;;;4.30;99.90;;;;;;5050207;28;20040;-78
2023/01/23 00:12:53;;;;;;;9.68;5.15;;;5.00;99.90;;;;;;5079111;28;20183;-77
2023/01/23 00:15:19;;;;;;;11.25;5.60;;;3.90;99.90;;;;;;5047878;28;20049;-77
2023/01/23 00:17:44;;;;;;;11.85;6.40;;;3.90;99.90;;;;;;5059303;28;20041;-78
2023/01/23 00:20:12;;;;;;;13.15;5.07;;;3.90;99.90;;;;;;5041419;28;20047;-77
2023/01/23 00:22:38;;;;;;;11.00;5.55;;;3.90;99.90;;;;;;5041162;28;20045;-77
2023/01/23 00:25:05;;;;;;;13.48;5.30;;;3.90;99.90;;;;;;5039982;28;20051;-78
2023/01/23 00:27:31;;;;;;;10.40;5.22;;;3.90;99.90;;;;;;5072475;28;20143;-77
2023/01/23 00:29:56;;;;;;;12.52;5.55;;;5.00;99.90;;;;;;5061388;28;20097;-78
2023/01/23 00:32:22;;;;;;;10.15;5.40;;;3.90;99.90;;;;;;5060847;28;20073;-77
2023/01/23 00:34:48;;;;;;;10.40;5.63;;;3.90;99.90;;;;;;5078126;28;20493;-77
2023/01/23 00:37:15;;;;;;;9.82;4.85;;;3.90;99.90;;;;;;5059955;28;20473;-77
2023/01/23 00:39:41;;;;;;;10.63;5.57;;;3.90;99.90;;;;;;5079157;28;20074;-78
2023/01/23 00:42:07;;;;;;;11.18;5.55;;;3.90;99.90;;;;;;5077690;28;20127;-77
2023/01/23 00:44:33;;;;;;;10.80;6.05;;;3.90;99.90;;;;;;5060791;28;20125;-77
2023/01/23 00:46:59;;;;;;;9.68;5.03;;;3.90;99.90;;;;;;5043790;28;20477;-77
2023/01/23 00:49:25;;;;;;;9.40;5.50;;;3.90;99.90;;;;;;5069083;28;20044;-78
2023/01/23 00:51:51;;;;;;;10.55;5.60;;;4.30;99.90;;;;;;5075496;28;20033;-77
2023/01/23 00:54:20;;;;;;;10.38;5.57;;;3.90;99.90;;;;;;5057132;28;20471;-77
2023/01/23 00:56:46;;;;;;;11.10;5.63;;;5.00;99.90;;;;;;5040489;28;20128;-77
2023/01/23 00:59:12;;;;;;;10.25;5.68;;;3.90;99.90;;;;;;5063256;28;20044;-78
2023/01/23 01:01:38;;;;;;;10.70;5.05;;;3.90;99.90;;;;;;5028531;28;20072;-78
2023/01/23 01:04:03;;;;;;;12.07;5.72;;;3.90;99.90;;;;;;5068015;28;20049;-77
2023/01/23 01:06:29;;;;;;;11.07;5.30;;;3.90;99.90;;;;;;5042929;28;20095;-77
2023/01/23 01:08:56;;;;;;;12.15;5.25;;;4.70;99.90;;;;;;5056389;28;20040;-78
2023/01/23 01:11:22;;;;;;;10.15;4.93;;;3.90;99.90;;;;;;5067758;28;20127;-78
2023/01/23 01:13:48;;;;;;;12.23;5.40;;;4.70;99.90;;;;;;5021167;28;20141;-77
2023/01/23 01:16:14;;;;;;;8.15;4.95;;;3.90;99.90;;;;;;5022785;28;20038;-77
2023/01/23 01:18:40;;;;;;;11.13;6.13;;;3.90;99.90;;;;;;5035259;28;20041;-78
2023/01/23 01:21:07;;;;;;;10.02;5.07;;;3.90;99.90;;;;;;5033985;28;20095;-78
2023/01/23 01:23:33;;;;;;;11.35;5.57;;;3.80;99.90;;;;;;5033756;28;20052;-77
2023/01/23 01:26:00;;;;;;;9.18;5.70;;;5.00;99.90;;;;;;5034217;28;20037;-77
2023/01/23 01:28:29;;;;;;;13.90;5.30;;;3.80;99.90;;;;;;5026583;28;20398;-77
2023/01/23 01:30:56;;;;;;;10.93;5.35;;;5.00;99.90;;;;;;5015226;28;20042;-77
2023/01/23 01:33:23;;;;;;;9.82;5.13;;;5.10;99.90;;;;;;5013872;28;20054;-77
2023/01/23 01:35:49;;;;;;;10.07;5.22;;;3.90;99.90;;;;;;5013868;28;20129;-77
2023/01/23 01:38:14;;;;;;;12.00;5.28;;;3.80;99.90;;;;;;5015271;28;20595;-77
2023/01/23 01:40:40;;;;;;;11.68;5.50;;;3.80;99.90;;;;;;5015093;28;20041;-77
2023/01/23 01:43:08;;;;;;;11.55;5.22;;;3.90;99.90;;;;;;5030046;28;20124;-77
2023/01/23 01:46:05;;;;;;;10.07;5.25;;;4.10;99.90;;;;;;5034859;28;20049;-78
2023/01/23 01:49:14;;;;;;;11.45;5.93;;;3.80;99.90;;;;;;5021578;28;20053;-77
2023/01/23 01:51:58;;;;;;;11.30;5.22;;;4.60;99.90;;;;;;5032282;28;20051;-78
2023/01/23 01:54:35;;;;;;;13.95;5.95;;;3.80;99.90;;;;;;5027566;28;20064;-77
2023/01/23 01:57:07;;;;;;;9.57;5.30;;;3.80;99.90;;;;;;5018759;28;20053;-77
2023/01/23 01:59:39;;;;;;;10.70;5.25;;;4.30;99.90;;;;;;5034028;28;20053;-77
2023/01/23 02:02:16;;;;;;;10.65;5.22;;;4.90;99.90;;;;;;5000293;28;20052;-77
2023/01/23 02:04:46;;;;;;;10.98;5.75;;;4.90;99.90;;;;;;5033527;28;20111;-77
2023/01/23 02:07:26;;;;;;;11.30;5.70;;;3.80;99.90;;;;;;5016099;28;20117;-77
2023/01/23 02:09:53;;;;;;;13.77;5.65;;;5.10;99.90;;;;;;5029044;28;20048;-77
2023/01/23 02:12:19;;;;;;;10.27;6.00;;;5.20;99.90;;;;;;5015426;28;20036;-77
2023/01/23 02:14:45;;;;;;;13.27;6.07;;;5.10;99.90;;;;;;5053935;28;20474;-77
2023/01/23 02:17:11;;;;;;;10.10;5.60;;;4.40;99.90;;;;;;5036271;28;20084;-77
2023/01/23 02:19:44;;;;;;;10.23;6.00;;;3.80;99.90;;;;;;5053914;28;20179;-78
2023/01/23 02:22:19;;;;;;;11.95;5.78;;;5.00;99.90;;;;;;5036185;28;20052;-77
2023/01/23 02:24:57;;;;;;;13.13;6.03;;;4.40;99.90;;;;;;5053914;28;20072;-77
2023/01/23 02:27:23;;;;;;;10.38;5.85;;;3.80;99.90;;;;;;5053968;28;20469;-77
2023/01/23 02:29:50;;;;;;;10.23;5.55;;;3.80;99.90;;;;;;5053733;28;20080;-78
2023/01/23 02:32:18;;;;;;;11.32;6.03;;;3.80;99.90;;;;;;5048344;28;20041;-77
2023/01/23 02:34:44;;;;;;;13.25;5.90;;;4.30;99.90;;;;;;5019013;28;20047;-77
2023/01/23 02:37:11;;;;;;;9.98;6.07;;;5.20;99.90;;;;;;5034337;28;20079;-78
2023/01/23 02:39:38;;;;;;;9.73;6.00;;;3.80;99.90;;;;;;5053125;28;20509;-78
2023/01/23 02:42:04;;;;;;;10.30;5.80;;;4.20;99.90;;;;;;5053797;28;20060;-77
2023/01/23 02:44:31;;;;;;;11.18;6.13;;;3.80;99.90;;;;;;5035556;28;20048;-77
2023/01/23 02:46:59;;;;;;;12.25;6.03;;;3.80;99.90;;;;;;5053239;28;20041;-77
2023/01/23 02:49:25;;;;;;;12.52;6.32;;;3.80;99.90;;;;;;5036424;28;20041;-77
2023/01/23 02:51:52;;;;;;;8.93;5.82;;;5.00;99.90;;;;;;5034380;28;20059;-78
2023/01/23 02:54:18;;;;;;;10.98;6.05;;;3.80;99.90;;;;;;5052466;28;20401;-77
2023/01/23 02:56:44;;;;;;;14.02;6.50;;;3.80;99.90;;;;;;5053671;28;20037;-78
2023/01/23 03:01:54;;;;;;;10.68;6.15;;;4.80;99.90;;;;;;5052552;28;20045;-78
2023/01/23 03:04:20;;;;;;;10.50;6.32;;;3.80;99.90;;;;;;5053155;28;20063;-78
2023/01/23 03:06:46;;;;;;;13.02;6.13;;;3.80;99.90;;;;;;5053342;28;20393;-78
2023/01/23 03:09:14;;;;;;;11.40;6.20;;;5.30;99.90;;;;;;5052543;28;20084;-77
2023/01/23 03:11:42;;;;;;;10.52;6.00;;;3.90;99.90;;;;;;5033854;28;20037;-77
2023/01/23 03:14:17;;;;;;;11.07;6.35;;;5.10;99.90;;;;;;5032559;28;20097;-77
2023/01/23 03:16:48;;;;;;;14.90;6.70;;;3.90;99.90;;;;;;4996046;28;20119;-77
2023/01/23 03:19:14;;;;;;;11.93;6.93;;;5.20;99.90;;;;;;5014354;28;20041;-77
2023/01/23 03:21:40;;;;;;;11.60;5.88;;;5.20;99.90;;;;;;5012471;28;20371;-78
2023/01/23 03:24:08;;;;;;;10.10;6.03;;;3.90;99.90;;;;;;5012926;28;20060;-78
2023/01/23 03:26:34;;;;;;;12.95;5.88;;;3.90;99.90;;;;;;5032783;28;20083;-77
2023/01/23 03:31:43;;;;;;;9.38;5.82;;;3.90;99.90;;;;;;5031008;28;20065;-77
2023/01/23 03:34:09;;;;;;;11.18;6.20;;;3.90;99.90;;;;;;5032609;28;20588;-78
2023/01/23 03:36:36;;;;;;;11.63;5.88;;;5.50;99.90;;;;;;5032581;28;20095;-77
2023/01/23 03:41:52;;;;;;;8.75;6.20;;;3.90;99.90;;;;;;5003562;28;20049;-77
2023/01/23 03:44:19;;;;;;;11.02;5.68;;;5.00;99.90;;;;;;5015587;28;20061;-77
2023/01/23 03:46:47;;;;;;;9.63;5.63;;;4.60;99.90;;;;;;4998675;28;20048;-77
2023/01/23 03:49:13;;;;;;;9.95;6.13;;;5.10;99.90;;;;;;5013884;28;20050;-77
2023/01/23 03:51:38;;;;;;;13.95;7.03;;;3.80;99.90;;;;;;5002598;28;20060;-77
2023/01/23 03:54:04;;;;;;;10.95;6.65;;;3.80;99.90;;;;;;5031707;28;20042;-76
2023/01/23 03:56:30;;;;;;;12.80;6.40;;;3.80;99.90;;;;;;5029689;28;20508;-76
2023/01/23 03:58:56;;;;;;;13.65;6.47;;;3.80;99.90;;;;;;5013048;28;20034;-76
2023/01/23 04:01:22;;;;;;;10.65;6.28;;;3.80;99.90;;;;;;5014043;28;20046;-76
2023/01/23 04:03:49;;;;;;;11.35;6.80;;;3.80;99.90;;;;;;5008042;28;20061;-76
2023/01/23 04:06:15;;;;;;;10.50;6.10;;;3.80;99.90;;;;;;5032643;28;20041;-76
2023/01/23 04:08:40;;;;;;;10.30;5.78;;;3.90;99.90;;;;;;5022614;28;20406;-76
2023/01/23 04:11:08;;;;;;;11.98;6.38;;;3.80;99.90;;;;;;5023624;28;20041;-76
2023/01/23 04:13:34;;;;;;;8.73;5.63;;;4.60;99.90;;;;;;5031361;28;20053;-76
2023/01/23 04:16:01;;;;;;;8.40;5.30;;;3.80;99.90;;;;;;5032968;28;20052;-76
2023/01/23 04:18:27;;;;;;;11.00;5.35;;;5.30;99.90;;;;;;5051578;28;20037;-76
2023/01/23 04:20:53;;;;;;;13.80;5.70;;;3.80;99.90;;;;;;5034670;28;20132;-76
2023/01/23 04:23:19;;;;;;;10.52;5.43;;;5.20;99.90;;;;;;5037229;28;20488;-76
2023/01/23 04:25:44;;;;;;;11.95;5.40;;;4.60;99.90;;;;;;5038489;28;20041;-76
2023/01/23 04:28:10;;;;;;;10.75;6.10;;;3.80;99.90;;;;;;5056249;28;20106;-76
2023/01/23 04:30:35;;;;;;;10.23;5.15;;;3.30;99.90;;;;;;5050862;28;20474;-76
2023/01/23 04:33:01;;;;;;;9.68;5.60;;;5.00;99.90;;;;;;5018357;28;20042;-76
2023/01/23 04:35:27;;;;;;;10.20;5.25;;;4.50;99.90;;;;;;5036117;28;20183;-76
2023/01/23 04:37:52;;;;;;;8.70;5.32;;;3.80;99.90;;;;;;5018170;28;20045;-76
2023/01/23 04:40:18;;;;;;;11.65;5.30;;;5.30;99.90;;;;;;5018301;28;20387;-76
2023/01/23 04:42:43;;;;;;;9.30;5.47;;;3.80;99.90;;;;;;5035901;28;20037;-76
2023/01/23 04:45:09;;;;;;;10.65;5.70;;;3.80;99.90;;;;;;5054080;28;20047;-76
2023/01/23 04:47:35;;;;;;;8.90;5.07;;;3.80;99.90;;;;;;5018911;28;20125;-76
2023/01/23 04:50:01;;;;;;;10.50;5.60;;;3.80;99.90;;;;;;5035765;28;20116;-76
2023/01/23 04:52:27;;;;;;;10.68;5.80;;;3.80;99.90;;;;;;5035563;28;20120;-76
2023/01/23 04:54:53;;;;;;;13.23;5.65;;;3.80;99.90;;;;;;5017584;28;20041;-76
2023/01/23 04:57:19;;;;;;;9.27;6.25;;;4.20;99.90;;;;;;5017988;28;20038;-76
2023/01/23 04:59:44;;;;;;;11.30;6.00;;;3.80;99.90;;;;;;5035760;28;20077;-76
2023/01/23 05:02:10;;;;;;;10.23;5.63;;;5.00;99.90;;;;;;5034485;28;20041;-78
2023/01/23 05:04:36;;;;;;;12.43;5.90;;;3.90;99.90;;;;;;5033858;28;20084;-78
2023/01/23 05:07:02;;;;;;;11.73;6.13;;;4.30;99.90;;;;;;5035073;28;20052;-78
2023/01/23 05:09:27;;;;;;;8.85;5.82;;;3.80;99.90;;;;;;5018129;28;20064;-78
2023/01/23 05:11:53;;;;;;;11.10;6.22;;;4.90;99.90;;;;;;5043339;28;20175;-79
2023/01/23 05:14:20;;;;;;;10.18;5.80;;;3.80;99.90;;;;;;5021906;28;20111;-77
2023/01/23 05:16:46;;;;;;;8.90;6.20;;;3.70;99.90;;;;;;5035774;28;20389;-78
2023/01/23 05:19:13;;;;;;;10.88;6.25;;;3.70;99.90;;;;;;5042595;28;20462;-78
2023/01/23 05:21:39;;;;;;;11.23;6.03;;;3.80;99.90;;;;;;5055195;28;20053;-78
2023/01/23 05:24:05;;;;;;;10.60;6.18;;;3.70;99.90;;;;;;5036279;28;20493;-78
2023/01/23 05:26:31;;;;;;;10.65;6.47;;;3.80;99.90;;;;;;5026082;28;20041;-78
2023/01/23 05:28:57;;;;;;;11.85;6.82;;;3.70;99.90;;;;;;5017072;28;20056;-78
2023/01/23 05:31:22;;;;;;;10.40;6.05;;;3.70;99.90;;;;;;5035134;28;20073;-78
2023/01/23 05:33:48;;;;;;;18.33;7.00;;;5.30;99.90;;;;;;5033852;28;20041;-78
2023/01/23 05:36:13;;;;;;;10.98;6.72;;;3.70;99.90;;;;;;5034952;28;20080;-78
2023/01/23 05:38:39;;;;;;;14.15;7.50;;;3.70;99.90;;;;;;5017207;28;20046;-78
2023/01/23 05:41:05;;;;;;;12.05;6.72;;;3.90;99.90;;;;;;5018804;28;20049;-78
2023/01/23 05:43:30;;;;;;;11.55;7.30;;;3.70;99.90;;;;;;5037502;28;20171;-78
2023/01/23 05:46:00;;;;;;;14.13;7.50;;;3.70;99.90;;;;;;5035216;28;20037;-77
2023/01/23 05:48:25;;;;;;;11.02;7.30;;;3.70;99.90;;;;;;5031316;28;20049;-77
2023/01/23 05:50:51;;;;;;;14.80;7.13;;;3.70;99.90;;;;;;5034664;28;20048;-77
2023/01/23 05:53:17;;;;;;;12.38;6.80;;;5.30;99.90;;;;;;5036300;28;20472;-77
2023/01/23 05:55:42;;;;;;;13.63;6.68;;;3.90;99.90;;;;;;5035026;28;20048;-77
2023/01/23 05:58:08;;;;;;;14.18;7.60;;;3.70;99.90;;;;;;5026844;28;20042;-77
2023/01/23 06:00:34;;;;;;;12.82;7.32;;;3.60;99.90;;;;;;5023579;28;20496;-77
2023/01/23 06:02:59;;;;;;;10.10;6.68;;;3.70;99.90;;;;;;5043190;28;20040;-77
2023/01/23 06:05:25;;;;;;;12.70;6.70;;;3.70;99.90;;;;;;5054240;28;20052;-76
2023/01/23 06:07:51;;;;;;;10.25;6.70;;;3.70;99.90;;;;;;5038751;28;20124;-76
2023/01/23 06:10:17;;;;;;;13.10;6.70;;;4.90;99.90;;;;;;5034170;28;20041;-79
2023/01/23 06:12:42;;;;;;;10.13;6.85;;;3.70;99.90;;;;;;5025455;28;20053;-78
2023/01/23 06:15:09;;;;;;;11.13;6.60;;;5.10;99.90;;;;;;5036438;28;20107;-78
2023/01/23 06:17:34;;;;;;;9.75;6.43;;;3.70;99.90;;;;;;5014560;28;20072;-78
2023/01/23 06:20:00;;;;;;;12.05;6.68;;;4.80;99.90;;;;;;5047257;28;20486;-78
2023/01/23 06:22:26;;;;;;;11.82;6.88;;;5.00;99.90;;;;;;5015686;28;20049;-78
2023/01/23 06:24:51;;;;;;;11.45;6.63;;;3.70;99.90;;;;;;5033486;28;20108;-78
2023/01/23 06:27:17;;;;;;;14.27;7.10;;;5.10;99.90;;;;;;5014235;28;20088;-78
2023/01/23 06:29:43;;;;;;;12.07;6.80;;;3.70;99.90;;;;;;5030888;28;20069;-78
2023/01/23 06:32:08;;;;;;;11.70;7.00;;;3.70;99.90;;;;;;5016060;28;20049;-79
2023/01/23 06:34:35;;;;;;;11.65;7.40;;;4.30;99.90;;;;;;5033283;28;20116;-78
2023/01/23 06:37:01;;;;;;;14.63;7.25;;;5.00;99.90;;;;;;4999412;28;20045;-78
2023/01/23 06:39:29;;;;;;;11.18;7.00;;;3.60;99.90;;;;;;5048184;28;20029;-78
2023/01/23 06:41:55;;;;;;;11.07;7.10;;;5.10;99.90;;;;;;5035900;28;20053;-74
2023/01/23 06:44:21;;;;;;;11.48;7.20;;;4.90;99.90;;;;;;5041464;28;20041;-78
2023/01/23 06:46:47;;;;;;;13.80;7.50;;;3.60;99.90;;;;;;5015658;28;20037;-78
2023/01/23 06:49:13;;;;;;;12.52;7.40;;;3.60;99.90;;;;;;5030187;28;20040;-79
2023/01/23 06:51:38;;;;;;;14.13;7.30;;;5.10;99.90;;;;;;5053461;28;20112;-78
2023/01/23 06:54:04;;;;;;;12.45;7.20;;;3.60;99.90;;;;;;5018518;28;20508;-78
2023/01/23 06:56:30;;;;;;;12.25;7.68;;;3.60;99.90;;;;;;5053514;28;20347;-78
2023/01/23 06:58:56;;;;;;;14.80;8.10;;;3.50;99.90;;;;;;5052919;28;20045;-79
2023/01/23 07:01:22;;;;;;;15.10;7.85;;;3.60;99.90;;;;;;5020496;28;20037;-77
2023/01/23 07:03:48;;;;;;;12.32;7.57;;;5.20;99.90;;;;;;4998728;28;20132;-79
2023/01/23 07:06:15;;;;;;;14.55;7.28;;;3.60;99.90;;;;;;5016272;28;20452;-78
2023/01/23 07:08:41;;;;;;;12.90;7.60;;;3.60;99.90;;;;;;5018712;28;20141;-78
2023/01/23 07:11:07;;;;;;;13.15;7.72;;;3.90;99.90;;;;;;5033714;28;20041;-78
2023/01/23 07:13:33;;;;;;;11.95;7.70;;;3.60;99.90;;;;;;5018050;28;20106;-78
2023/01/23 07:15:59;;;;;;;11.27;7.28;;;3.60;99.90;;;;;;5033245;28;20493;-78
2023/01/23 07:18:27;;;;;;;13.63;8.10;;;3.50;99.90;;;;;;5018525;28;20404;-78
2023/01/23 07:20:53;;;;;;;12.88;7.57;;;4.50;99.90;;;;;;5034919;28;20084;-78
2023/01/23 07:23:19;;;;;;;15.38;8.15;;;4.50;99.90;;;;;;5016376;28;20068;-78
2023/01/23 07:25:45;;;;;;;14.43;7.60;;;3.90;99.90;;;;;;5016218;28;20029;-79
2023/01/23 07:28:11;;;;;;;14.20;8.10;;;3.60;99.90;;;;;;5041862;28;20415;-82
2023/01/23 07:30:37;;;;;;;13.93;7.78;;;4.20;99.90;;;;;;5052475;28;20045;-77
2023/01/23 07:33:03;;;;;;;12.63;7.82;;;5.00;99.90;;;;;;5036649;28;20038;-78
2023/01/23 07:35:29;;;;;;;11.05;7.80;;;3.80;99.90;;;;;;5014925;28;20493;-78
2023/01/23 07:37:55;;;;;;;16.63;7.72;;;5.50;99.90;;;;;;5032529;28;20049;-78
2023/01/23 07:40:20;;;;;;;13.68;7.97;;;3.60;99.90;;;;;;5032368;28;20042;-80
2023/01/23 07:42:46;;;;;;;12.73;8.10;;;3.60;99.90;;;;;;5013415;28;20045;-78
2023/01/23 07:45:12;;;;;;;13.52;7.68;;;3.50;99.90;;;;;;5014794;28;20042;-78
2023/01/23 07:47:39;;;;;;;14.82;7.90;;;5.20;99.90;;;;;;5014803;28;20437;-79
2023/01/23 07:50:13;;;;;;;12.25;7.88;;;3.90;99.90;;;;;;5032525;28;20049;-79
2023/01/23 07:52:39;;;;;;;15.32;7.78;;;3.60;99.90;;;;;;5032649;28;20450;-79
2023/01/23 07:55:05;;;;;;;15.23;8.18;;;3.60;99.90;;;;;;5028658;28;20079;-80
2023/01/23 07:57:32;;;;;;;14.10;8.13;;;3.60;99.90;;;;;;5050655;28;20124;-79
2023/01/23 07:59:58;;;;;;;13.10;8.02;;;4.40;99.90;;;;;;5038048;28;20049;-79
2023/01/23 08:02:24;;;;;;;13.73;8.27;;;3.70;99.90;;;;;;5050407;28;20045;-79
2023/01/23 08:04:49;;;;;;;11.70;7.80;;;4.30;99.90;;;;;;5018051;28;20038;-79
2023/01/23 08:07:15;;;;;;;12.23;7.88;;;3.60;99.90;;;;;;5017891;28;20099;-79
2023/01/23 08:09:41;;;;;;;11.13;7.25;;;3.60;99.90;;;;;;5035552;28;20085;-79
2023/01/23 08:12:06;;;;;;;14.45;8.25;;;3.60;99.90;;;;;;5020031;28;20041;-78
2023/01/23 08:14:32;;;;;;;13.38;8.10;;;4.40;99.90;;;;;;5028964;28;20080;-78
2023/01/23 08:16:58;;;;;;;11.93;7.65;;;3.70;99.90;;;;;;5001852;28;20045;-78
2023/01/23 08:19:26;;;;;;;12.40;7.60;;;3.70;99.90;;;;;;5032165;28;20044;-79
2023/01/23 08:21:53;;;;;;;10.02;6.93;;;3.70;99.90;;;;;;5056040;28;20053;-78
2023/01/23 08:24:19;;;;;;;11.45;7.00;;;3.70;99.90;;;;;;5037124;28;20041;-79
2023/01/23 08:26:44;;;;;;;14.38;6.95;;;3.80;99.90;;;;;;5042937;28;20551;-79
2023/01/23 08:29:10;;;;;;;10.82;6.90;;;3.80;99.90;;;;;;5031161;28;20458;-77
2023/01/23 08:31:36;;;;;;;9.68;6.35;;;3.80;99.90;;;;;;5055669;28;20045;-77
2023/01/23 08:34:02;;;;;;;10.68;6.88;;;3.80;99.90;;;;;;5026950;28;20503;-76
2023/01/23 08:36:28;;;;;;;11.88;6.75;;;5.20;99.90;;;;;;5044814;28;20049;-76
2023/01/23 08:38:54;;;;;;;10.48;5.88;;;4.80;99.90;;;;;;5027671;28;20044;-75
2023/01/23 08:41:22;;;;;;;8.65;5.88;;;3.90;99.90;;;;;;5050141;28;20050;-76
2023/01/23 08:43:48;;;;;;;10.60;6.32;;;3.90;99.90;;;;;;5043886;28;20094;-76
2023/01/23 08:46:13;;;;;;;10.88;6.25;;;3.90;99.90;;;;;;5055427;28;20045;-79
2023/01/23 08:48:39;;;;;;;9.25;6.00;;;3.90;99.90;;;;;;5055367;28;20464;-75
2023/01/23 08:51:07;;;;;;;9.05;5.82;;;4.00;99.90;;;;;;5054676;28;20059;-76
2023/01/23 08:53:34;;;;;;;8.27;5.47;;;5.00;99.90;;;;;;5052189;28;20037;-75
2023/01/23 08:56:05;;;;;;;8.27;5.72;;;5.20;99.90;;;;;;5037433;28;20428;-77
2023/01/23 08:58:31;;;;;;;8.65;5.55;;;5.10;99.90;;;;;;5048918;28;20056;-79
2023/01/23 09:00:57;;;;;;;8.15;5.68;;;4.10;99.90;;;;;;5035354;28;20034;-79
2023/01/23 09:03:23;;;;;;;8.30;5.28;;;4.60;99.90;;;;;;5017529;28;20477;-79
2023/01/23 09:05:48;;;;;;;7.03;5.43;;;4.10;99.90;;;;;;5015814;28;20091;-78
2023/01/23 09:08:14;;;;;;;7.82;5.57;;;4.10;99.90;;;;;;5031048;28;20038;-76
2023/01/23 09:10:39;;;;;;;7.97;6.03;;;4.10;99.90;;;;;;5034165;28;20379;-79
2023/01/23 09:13:05;;;;;;;9.73;5.30;;;4.10;99.90;;;;;;5045443;28;20076;-79
2023/01/23 09:15:31;;;;;;;8.23;5.07;;;4.90;99.90;;;;;;5054814;28;20045;-79
2023/01/23 09:17:57;;;;;;;8.00;5.40;;;4.10;99.90;;;;;;5034364;28;20116;-78
2023/01/23 09:20:25;;;;;;;7.05;5.38;;;4.70;99.90;;;;;;5033311;28;20044;-78
2023/01/23 09:22:51;;;;;;;6.38;4.82;;;5.30;99.90;;;;;;5036600;28;20053;-78
2023/01/23 09:25:17;;;;;;;7.53;5.25;;;4.20;99.90;;;;;;5054838;28;20118;-78
2023/01/23 09:27:42;;;;;;;8.50;4.65;;;4.10;99.90;;;;;;5036710;28;20481;-78
2023/01/23 09:30:09;;;;;;;7.30;5.00;;;4.20;99.90;;;;;;5054468;28;20150;-78
2023/01/23 09:32:35;;;;;;;7.60;5.18;;;4.20;99.90;;;;;;5054163;28;20033;-78
2023/01/23 09:35:00;;;;;;;7.82;5.07;;;4.20;99.90;;;;;;5036331;28;20052;-78
2023/01/23 09:37:58;;;;;;;7.65;5.15;;;4.20;99.90;;;;;;5036467;28;20052;-78
2023/01/23 09:40:17;;;;;;;7.35;5.00;;;4.20;99.90;;;;;;5036748;28;20421;-79
2023/01/23 09:42:43;;;;;;;8.02;5.68;;;4.20;99.90;;;;;;5054523;28;20044;-79
2023/01/23 09:45:14;;;;;;;8.77;5.10;;;4.20;99.90;;;;;;5036500;28;20385;-79
2023/01/23 09:48:03;;;;;;;7.18;5.10;;;4.20;99.90;;;;;;5033855;28;20040;-79
2023/01/23 09:50:35;;;;;;;7.30;5.20;;;4.20;99.90;;;;;;4980371;28;20120;-78
2023/01/23 09:53:10;;;;;;;8.38;5.30;;;4.30;99.90;;;;;;5032939;28;20462;-78
2023/01/23 09:55:44;;;;;;;8.07;5.07;;;4.30;99.90;;;;;;5016279;28;20077;-78
2023/01/23 09:58:29;;;;;;;7.15;5.40;;;4.30;99.90;;;;;;5033760;28;20071;-78
2023/01/23 10:00:55;;;;;;;8.75;5.72;;;5.60;99.90;;;;;;5023210;28;20367;-78
2023/01/23 10:03:25;;;;;;;8.60;5.47;;;4.30;99.90;;;;;;5049082;28;20044;-78
2023/01/23 10:06:05;;;;;;;7.53;5.32;;;4.40;99.90;;;;;;5036500;28;20052;-78
2023/01/23 10:08:53;;;;;;;7.28;5.75;;;4.40;99.90;;;;;;5033971;28;20045;-78
2023/01/23 10:11:35;;;;;;;9.50;6.13;;;4.50;99.90;;;;;;5038190;28;20095;-78
2023/01/23 10:14:25;;;;;;;10.05;6.20;;;4.50;99.90;;;;;;5036808;28;20057;-78
2023/01/23 10:17:09;;;;;;;10.40;6.45;;;4.60;99.90;;;;;;5016123;28;20045;-78
2023/01/23 10:20:01;;;;;;;10.63;6.25;;;4.50;99.90;;;;;;4998906;28;20042;-79
2023/01/23 10:22:40;;;;;;;9.70;6.55;;;4.60;99.90;;;;;;5033363;28;20339;-78
2023/01/23 10:25:18;;;;;;;13.10;7.13;;;4.60;99.90;;;;;;5024732;28;20042;-75
2023/01/23 10:27:46;;;;;;;10.05;6.80;;;4.60;99.90;;;;;;5048004;28;20060;-74
2023/01/23 10:30:22;;;;;;;11.02;6.63;;;4.60;99.90;;;;;;5051296;28;20049;-75
2023/01/23 10:33:10;;;;;;;10.13;7.28;;;4.60;99.90;;;;;;5053203;28;20556;-75
2023/01/23 10:35:46;;;;;;;9.60;6.80;;;4.70;99.90;;;;;;5045090;28;20139;-76
2023/01/23 10:38:41;;;;;;;;;;;4.70;99.90;;;;;;5036192;28;20148;-77
2023/01/23 10:41:18;;;;;;;9.52;6.97;;;4.70;99.90;;;;;;5040076;28;20395;-77
2023/01/23 10:43:48;;;;;;;10.80;6.95;;;4.70;99.90;;;;;;5029308;28;20498;-77
2023/01/23 10:46:26;;;;;;;11.70;7.90;;;5.20;99.90;;;;;;5029095;28;20080;-77
2023/01/23 10:48:53;;;;;;;10.95;8.13;;;5.80;99.90;;;;;;5017992;28;20049;-77
2023/01/23 10:51:43;;;;;;;10.38;8.07;;;4.80;99.90;;;;;;5018378;28;20159;-77
2023/01/23 10:54:18;;;;;;;11.05;7.55;;;4.80;99.90;;;;;;5034398;28;20056;-77
2023/01/23 10:57:06;;;;;;;11.95;8.43;;;4.80;99.90;;;;;;5017583;28;20045;-77
2023/01/23 10:59:40;;;;;;;11.40;7.95;;;4.80;99.90;;;;;;5053119;28;20133;-77
2023/01/23 11:02:11;;;;;;;11.68;7.90;;;4.80;99.90;;;;;;5051357;28;20037;-77
2023/01/23 11:04:39;;;;;;;12.73;8.23;;;4.90;99.90;;;;;;5030531;28;20045;-70
2023/01/23 11:07:10;;;;;;;11.55;8.13;;;5.40;99.90;;;;;;5012196;28;20489;-70
2023/01/23 11:10:10;;;;;;;12.85;8.98;;;4.90;99.90;;;;;;5030054;28;20053;-70
2023/01/23 11:12:50;;;;;;;13.80;9.15;;;5.00;99.90;;;;;;5011635;28;20049;-70
2023/01/23 11:15:26;;;;;;;13.65;9.07;;;5.00;99.90;;;;;;5029447;28;20053;-70
2023/01/23 11:17:57;;;;;;;13.55;8.98;;;5.00;99.90;;;;;;5029781;28;20144;-70
2023/01/23 11:20:33;;;;;;;14.82;9.27;;;5.00;99.90;;;;;;5012978;28;20076;-70
2023/01/23 11:23:09;;;;;;;12.80;8.60;;;5.10;99.90;;;;;;5028540;28;20116;-70
2023/01/23 11:25:39;;;;;;;;;;;5.10;99.90;;;;;;5012165;28;20068;-70
2023/01/23 11:28:29;;;;;;;13.45;8.70;;;5.10;99.90;;;;;;5028374;28;19928;-70
2023/01/23 11:31:20;;;;;;;13.25;8.60;;;5.10;99.90;;;;;;5028758;28;20219;-70
2023/01/23 11:33:56;;;;;;;14.00;9.20;;;5.10;99.90;;;;;;5012145;28;20092;-70
2023/01/23 11:36:39;;;;;;;12.18;8.82;;;5.10;99.90;;;;;;5029628;28;20038;-71
2023/01/23 11:39:15;;;;;;;12.07;8.65;;;5.20;99.90;;;;;;5029421;28;20073;-71
2023/01/23 11:41:42;;;;;;;;;;;5.20;99.90;;;;;;5029709;28;20502;-70
2023/01/23 11:44:15;;;;;;;12.52;8.65;;;5.60;99.90;;;;;;5011236;28;19938;-70
2023/01/23 11:47:03;;;;;;;14.38;8.60;;;6.40;99.90;;;;;;5011550;28;20048;-70
2023/01/23 11:50:00;;;;;;;12.73;8.70;;;5.70;99.90;;;;;;5046104;28;20045;-70
2023/01/23 11:52:48;;;;;;;11.95;8.57;;;5.50;99.90;;;;;;5047634;28;20071;-70
2023/01/23 11:55:38;;;;;;;12.02;8.05;;;5.60;99.90;;;;;;5012668;28;20240;-71
2023/01/23 11:58:17;;;;;;;11.15;7.78;;;5.70;99.90;;;;;;5029323;28;20094;-70
2023/01/23 12:01:25;;;;;;;11.38;8.52;;;5.70;99.90;;;;;;5010927;28;20060;-71
2023/01/23 12:04:09;;;;;;;12.70;8.35;;;5.80;99.90;;;;;;5011478;28;20053;-71
2023/01/23 12:06:56;;;;;;;10.35;7.95;;;5.80;99.90;;;;;;5029350;28;20049;-71
2023/01/23 12:09:26;;;;;;;12.50;8.73;;;5.80;99.90;;;;;;5041041;28;20099;-71
2023/01/23 12:12:19;;;;;;;12.43;8.07;;;5.90;99.90;;;;;;5049219;28;20056;-71
2023/01/23 12:14:53;;;;;;;10.32;7.25;;;5.90;99.90;;;;;;4995721;28;20060;-71
2023/01/23 12:17:46;;;;;;;14.20;7.45;;;6.00;99.90;;;;;;5011545;28;20057;-71
2023/01/23 12:20:40;;;;;;;10.82;7.55;;;6.00;99.90;;;;;;5011551;28;20033;-71
2023/01/23 12:23:18;;;;;;;11.43;7.03;;;6.00;99.90;;;;;;5017534;28;20541;-73
2023/01/23 12:25:53;;;;;;;11.38;7.32;;;5.90;99.90;;;;;;4996043;28;20038;-74
2023/01/23 12:28:48;;;;;;;10.95;7.60;;;5.90;99.90;;;;;;5000857;28;20046;-74
2023/01/23 12:31:23;;;;;;;8.52;6.63;;;5.90;99.90;;;;;;4995026;28;20490;-74
2023/01/23 12:34:00;;;;;;;11.52;7.10;;;6.70;99.90;;;;;;5029823;28;20497;-74
2023/01/23 12:36:42;;;;;;;11.95;7.78;;;5.80;99.90;;;;;;5014994;28;20068;-74
2023/01/23 12:39:26;;;;;;;10.82;7.38;;;5.80;99.90;;;;;;5031784;28;20045;-74
2023/01/23 12:42:02;;;;;;;11.35;7.70;;;5.70;99.90;;;;;;5013324;28;20103;-74
2023/01/23 12:44:40;;;;;;;;;;;5.60;99.90;;;;;;5023324;28;20060;-74
2023/01/23 12:47:15;;;;;;;11.43;7.88;;;5.50;99.90;;;;;;5013797;28;19979;-72
2023/01/23 12:49:52;;;;;;;11.05;7.15;;;5.40;99.90;;;;;;5004950;28;20049;-72
2023/01/23 12:52:27;;;;;;;9.77;7.55;;;5.40;99.90;;;;;;5017289;28;20041;-72
2023/01/23 12:55:02;;;;;;;9.30;7.13;;;6.00;99.90;;;;;;5034665;28;20421;-72
2023/01/23 12:57:39;;;;;;;12.33;7.70;;;5.40;99.90;;;;;;5016963;28;20092;-72
2023/01/23 13:00:11;;;;;;;11.88;7.82;;;5.80;99.90;;;;;;5034963;28;20120;-72
2023/01/23 13:02:57;;;;;;;11.20;6.88;;;5.40;99.90;;;;;;5033690;28;20120;-73
2023/01/23 13:05:43;;;;;;;9.77;7.28;;;5.40;99.90;;;;;;5009673;28;20042;-72
2023/01/23 13:08:27;;;;;;;10.60;7.18;;;5.40;99.90;;;;;;5034899;28;20044;-72
2023/01/23 13:13:46;;;;;;;10.32;7.60;;;5.40;99.90;;;;;;5012976;28;20053;-72
2023/01/23 13:16:14;;;;;;;10.95;6.93;;;5.40;99.90;;;;;;5034853;28;20061;-72